Time;durP1;ratioP1;P1;durP2;ratioP2;P2;SDS_P1;SDS_P2;PMS_P1;PMS_P2;Temp;Humidity;BMP_temperature;BMP_pressure;BME280_temperature;BME280_humidity;BME280_pressure;Samples;Min_cycle;Max_cycle;Signal;HPM_P1;HPM_P2
2023/07/17 00:01:55;;;;;;;;;;;20.70;99.90;;;;;;7588299;19;21144;-79
2023/07/17 00:04:27;;;;;;;;;;;20.70;99.90;;;;;;7585584;19;19956;-79
2023/07/17 00:07:00;;;;;;;;;;;20.70;99.90;;;;;;7579272;19;19918;-79
2023/07/17 00:09:32;;;;;;;;;;;20.70;99.90;;;;;;7573717;19;20349;-78
2023/07/17 00:12:04;;;;;;;;;;;20.70;99.90;;;;;;7559095;19;20582;-78
2023/07/17 00:14:36;;;;;;;;;;;20.70;99.90;;;;;;7578792;19;19943;-78
2023/07/17 00:17:08;;;;;;;;;;;20.70;99.90;;;;;;7600815;19;19926;-77
2023/07/17 00:19:51;;;;;;;;;;;20.70;99.90;;;;;;7584138;19;20529;-76
2023/07/17 00:22:24;;;;;;;;;;;20.80;99.90;;;;;;7598615;19;19928;-76
2023/07/17 00:24:56;;;;;;;;;;;20.70;99.90;;;;;;7586039;19;19918;-77
2023/07/17 00:27:28;;;;;;;;;;;20.80;99.90;;;;;;7592939;19;20405;-78
2023/07/17 00:30:00;;;;;;;;;;;20.80;99.90;;;;;;7586829;19;19929;-78
2023/07/17 00:32:33;;;;;;;;;;;20.80;99.90;;;;;;7589349;19;20299;-79
2023/07/17 00:35:06;;;;;;;;;;;20.70;99.90;;;;;;7589544;19;20258;-79
2023/07/17 00:37:39;;;;;;;;;;;20.70;99.90;;;;;;7592342;19;19935;-79
2023/07/17 00:40:12;;;;;;;;;;;20.70;99.90;;;;;;7596918;19;19990;-79
2023/07/17 00:42:44;;;;;;;;;;;20.60;99.90;;;;;;7582740;19;20385;-78
2023/07/17 00:45:16;;;;;;;;;;;20.60;99.90;;;;;;7586110;19;19919;-79
2023/07/17 00:47:48;;;;;;;;;;;20.60;99.90;;;;;;7583669;19;20452;-78
2023/07/17 00:50:21;;;;;;;;;;;20.60;99.90;;;;;;7590854;19;20564;-78
2023/07/17 00:52:54;;;;;;;;;;;20.60;99.90;;;;;;7590833;19;19946;-79
2023/07/17 00:55:26;;;;;;;;;;;20.50;99.90;;;;;;7593447;19;19971;-79
2023/07/17 00:57:59;;;;;;;;;;;20.60;99.90;;;;;;7586633;19;19953;-79
2023/07/17 01:00:32;;;;;;;;;;;20.70;99.90;;;;;;7589068;19;19925;-78
2023/07/17 01:03:04;;;;;;;;;;;20.60;99.90;;;;;;7564151;19;19919;-80
2023/07/17 01:05:36;;;;;;;;;;;20.50;99.90;;;;;;7578218;19;19915;-79
2023/07/17 01:08:08;;;;;;;;;;;20.50;99.90;;;;;;7583249;19;19923;-79
2023/07/17 01:10:41;;;;;;;;;;;20.30;99.90;;;;;;7585260;19;19994;-79
2023/07/17 01:13:13;;;;;;;;;;;20.20;99.90;;;;;;7582981;19;19919;-79
2023/07/17 01:15:46;;;;;;;;;;;20.30;99.90;;;;;;7591188;19;19915;-78
2023/07/17 01:18:18;;;;;;;;;;;20.30;99.90;;;;;;7587211;19;19929;-79
2023/07/17 01:20:50;;;;;;;;;;;20.40;99.90;;;;;;7592717;19;19926;-79
2023/07/17 01:23:22;;;;;;;;;;;20.30;99.90;;;;;;7591817;19;19918;-78
2023/07/17 01:25:54;;;;;;;;;;;20.40;99.90;;;;;;7598029;19;19927;-80
2023/07/17 01:28:27;;;;;;;;;;;20.40;99.90;;;;;;7601708;19;19998;-79
2023/07/17 01:30:59;;;;;;;;;;;20.40;99.90;;;;;;7592230;19;19934;-79
2023/07/17 01:33:32;;;;;;;;;;;20.40;99.90;;;;;;7582502;19;20252;-78
2023/07/17 01:36:04;;;;;;;;;;;20.30;99.90;;;;;;7596602;19;20258;-79
2023/07/17 01:38:37;;;;;;;;;;;20.40;99.90;;;;;;7600634;19;19930;-79
2023/07/17 01:41:09;;;;;;;;;;;20.50;99.90;;;;;;7589502;19;19930;-78
2023/07/17 01:43:41;;;;;;;;;;;20.40;99.90;;;;;;7604174;19;19930;-78
2023/07/17 01:46:13;;;;;;;;;;;20.40;99.90;;;;;;7589128;19;19930;-79
2023/07/17 01:48:47;;;;;;;;;;;20.30;99.90;;;;;;7595557;19;19922;-80
2023/07/17 01:51:19;;;;;;;;;;;20.30;99.90;;;;;;7578551;19;20420;-79
2023/07/17 01:53:52;;;;;;;;;;;20.30;99.90;;;;;;7579108;19;20325;-79
2023/07/17 01:56:25;;;;;;;;;;;20.20;99.90;;;;;;7587674;19;20377;-78
2023/07/17 01:58:57;;;;;;;;;;;20.10;99.90;;;;;;7589487;19;19934;-78
2023/07/17 02:01:29;;;;;;;;;;;20.20;99.90;;;;;;7584226;19;19950;-79
2023/07/17 02:04:01;;;;;;;;;;;20.20;99.90;;;;;;7575703;19;19927;-79
2023/07/17 02:06:33;;;;;;;;;;;20.20;99.90;;;;;;7600860;19;20213;-78
2023/07/17 02:09:05;;;;;;;;;;;20.20;99.90;;;;;;7580315;19;19968;-79
2023/07/17 02:11:38;;;;;;;;;;;20.20;99.90;;;;;;7598287;19;19927;-78
2023/07/17 02:14:10;;;;;;;;;;;20.30;99.90;;;;;;7585930;19;19923;-78
2023/07/17 02:16:42;;;;;;;;;;;20.30;99.90;;;;;;7601338;19;20446;-79
2023/07/17 02:19:16;;;;;;;;;;;20.30;99.90;;;;;;7589184;19;19930;-79
2023/07/17 02:21:48;;;;;;;;;;;20.30;99.90;;;;;;7596745;19;19930;-78
2023/07/17 02:24:20;;;;;;;;;;;20.40;99.90;;;;;;7578635;19;20429;-79
2023/07/17 02:26:53;;;;;;;;;;;20.40;99.90;;;;;;7599541;19;19923;-80
2023/07/17 02:29:25;;;;;;;;;;;20.40;99.90;;;;;;7580321;19;19990;-78
2023/07/17 02:31:58;;;;;;;;;;;20.40;99.90;;;;;;7580161;19;19918;-78
2023/07/17 02:34:30;;;;;;;;;;;20.40;99.90;;;;;;7588244;19;19938;-78
2023/07/17 02:37:08;;;;;;;;;;;20.50;99.90;;;;;;7594569;19;19923;-78
2023/07/17 02:39:43;;;;;;;;;;;20.50;99.90;;;;;;7591739;19;20037;-79
2023/07/17 02:42:15;;;;;;;;;;;20.50;99.90;;;;;;7592226;19;20428;-79
2023/07/17 02:44:47;;;;;;;;;;;20.50;99.90;;;;;;7594588;19;19955;-78
2023/07/17 02:47:19;;;;;;;;;;;20.50;99.90;;;;;;7580903;19;19941;-78
2023/07/17 02:49:51;;;;;;;;;;;20.50;99.90;;;;;;7583116;19;19964;-77
2023/07/17 02:52:24;;;;;;;;;;;20.50;99.90;;;;;;7581200;19;19929;-79
2023/07/17 02:54:56;;;;;;;;;;;20.50;99.90;;;;;;7590183;19;19923;-78
2023/07/17 02:57:28;;;;;;;;;;;20.50;99.90;;;;;;7580783;19;19938;-78
2023/07/17 03:00:14;;;;;;;;;;;20.50;99.90;;;;;;7584463;19;19915;-79
2023/07/17 03:02:48;;;;;;;;;;;20.50;99.90;;;;;;7577258;19;19938;-78
2023/07/17 03:05:20;;;;;;;;;;;20.60;99.90;;;;;;7577302;19;19935;-78
2023/07/17 03:07:54;;;;;;;;;;;20.60;99.90;;;;;;7579774;19;20343;-78
2023/07/17 03:10:26;;;;;;;;;;;20.60;99.90;;;;;;7583926;19;23194;-78
2023/07/17 03:12:58;;;;;;;;;;;20.60;99.90;;;;;;7594300;19;19994;-79
2023/07/17 03:15:31;;;;;;;;;;;20.60;99.90;;;;;;7584997;19;19922;-78
2023/07/17 03:18:03;;;;;;;;;;;20.60;99.90;;;;;;7591638;19;19926;-78
2023/07/17 03:20:41;;;;;;;;;;;20.60;99.90;;;;;;7591812;19;19922;-79
2023/07/17 03:23:13;;;;;;;;;;;20.50;99.90;;;;;;7591676;19;19922;-79
2023/07/17 03:25:45;;;;;;;;;;;20.50;99.90;;;;;;7590738;19;20329;-78
2023/07/17 03:28:18;;;;;;;;;;;20.40;99.90;;;;;;7591368;19;19967;-78
2023/07/17 03:30:52;;;;;;;;;;;20.50;99.90;;;;;;7603045;19;19923;-77
2023/07/17 03:33:25;;;;;;;;;;;20.50;99.90;;;;;;7586178;19;19922;-78
2023/07/17 03:35:57;;;;;;;;;;;20.50;99.90;;;;;;7604342;19;19934;-78
2023/07/17 03:38:31;;;;;;;;;;;20.40;99.90;;;;;;7583273;19;19926;-79
2023/07/17 03:41:04;;;;;;;;;;;20.40;99.90;;;;;;7583695;19;20845;-78
2023/07/17 03:43:36;;;;;;;;;;;20.40;99.90;;;;;;7585278;19;19922;-78
2023/07/17 03:46:08;;;;;;;;;;;20.30;99.90;;;;;;7590448;19;19991;-79
2023/07/17 03:48:41;;;;;;;;;;;20.30;99.90;;;;;;7591743;19;20006;-82
2023/07/17 03:51:14;;;;;;;;;;;20.10;99.90;;;;;;7627135;19;19965;-81
2023/07/17 03:53:50;;;;;;;;;;;19.80;99.90;;;;;;7603532;19;19933;-80
2023/07/17 03:56:23;;;;;;;;;;;19.70;99.90;;;;;;7588982;19;19919;-81
2023/07/17 03:58:55;;;;;;;;;;;19.50;99.90;;;;;;7589338;19;19917;-79
2023/07/17 04:01:27;;;;;;;;;;;19.50;99.90;;;;;;7586488;19;19929;-80
2023/07/17 04:04:00;;;;;;;;;;;19.50;99.90;;;;;;7595207;19;19933;-80
2023/07/17 04:06:33;;;;;;;;;;;19.50;99.90;;;;;;7592333;19;19956;-80
2023/07/17 04:09:05;;;;;;;;;;;19.50;99.90;;;;;;7594046;19;19930;-80
2023/07/17 04:11:39;;;;;;;;;;;19.40;99.90;;;;;;7581067;19;19929;-80
2023/07/17 04:14:11;;;;;;;;;;;19.50;99.90;;;;;;7598253;19;20334;-80
2023/07/17 04:16:44;;;;;;;;;;;19.60;99.90;;;;;;7595895;19;19915;-79
2023/07/17 04:19:16;;;;;;;;;;;19.60;99.90;;;;;;7596986;19;19919;-79
2023/07/17 04:21:48;;;;;;;;;;;19.70;99.90;;;;;;7599387;19;19919;-81
2023/07/17 04:24:22;;;;;;;;;;;19.70;99.90;;;;;;7595387;19;20408;-79
2023/07/17 04:26:55;;;;;;;;;;;19.60;99.90;;;;;;7585624;19;20456;-80
2023/07/17 04:29:27;;;;;;;;;;;19.50;99.90;;;;;;7579991;19;19923;-81
2023/07/17 04:32:04;;;;;;;;;;;19.50;99.90;;;;;;7584805;19;19919;-80
2023/07/17 04:34:36;;;;;;;;;;;19.50;99.90;;;;;;7587700;19;19915;-80
2023/07/17 04:37:09;;;;;;;;;;;19.50;99.90;;;;;;7597432;19;20576;-80
2023/07/17 04:39:41;;;;;;;;;;;19.60;99.90;;;;;;7586597;19;19931;-79
2023/07/17 04:42:13;;;;;;;;;;;19.60;99.90;;;;;;7593382;19;19923;-79
2023/07/17 04:44:46;;;;;;;;;;;19.60;99.90;;;;;;7596489;19;19929;-79
2023/07/17 04:47:19;;;;;;;;;;;19.60;99.90;;;;;;7574757;19;19993;-79
2023/07/17 04:49:53;;;;;;;;;;;19.60;99.90;;;;;;7585655;19;20618;-79
2023/07/17 04:52:27;;;;;;;;;;;19.50;99.90;;;;;;7580111;19;19930;-78
2023/07/17 04:54:59;;;;;;;;;;;19.50;99.90;;;;;;7554703;19;19918;-79
2023/07/17 04:57:31;;;;;;;;;;;19.40;99.90;;;;;;7585622;19;19950;-79
2023/07/17 05:00:05;;;;;;;;;;;19.40;99.90;;;;;;7577124;19;19981;-79
2023/07/17 05:02:37;;;;;;;;;;;19.40;99.90;;;;;;7566048;19;19978;-79
2023/07/17 05:05:10;;;;;;;;;;;19.40;99.90;;;;;;7587406;19;19914;-79
2023/07/17 05:07:43;;;;;;;;;;;19.50;99.90;;;;;;7541210;19;19926;-79
2023/07/17 05:10:18;;;;;;;;;;;19.50;99.90;;;;;;7563126;19;19922;-81
2023/07/17 05:12:51;;;;;;;;;;;19.50;99.90;;;;;;7575418;19;19931;-80
2023/07/17 05:15:23;;;;;;;;;;;19.40;99.90;;;;;;7583975;19;20273;-80
2023/07/17 05:17:55;;;;;;;;;;;19.40;99.90;;;;;;7584270;19;19927;-79
2023/07/17 05:20:29;;;;;;;;;;;19.30;99.90;;;;;;7531729;19;20336;-80
2023/07/17 05:23:01;;;;;;;;;;;19.30;99.90;;;;;;7540183;19;19925;-79
2023/07/17 05:25:34;;;;;;;;;;;19.30;99.90;;;;;;7568811;19;20776;-79
2023/07/17 05:28:06;;;;;;;;;;;19.30;99.90;;;;;;7531867;19;19955;-79
2023/07/17 05:30:38;;;;;;;;;;;19.30;99.90;;;;;;7542389;19;19930;-79
2023/07/17 05:33:11;;;;;;;;;;;19.30;99.90;;;;;;7561854;19;19919;-80
2023/07/17 05:35:44;;;;;;;;;;;19.40;99.90;;;;;;7557232;19;20795;-79
2023/07/17 05:38:16;;;;;;;;;;;19.40;99.90;;;;;;7574305;19;19911;-75
2023/07/17 05:41:00;;;;;;;;;;;19.30;99.90;;;;;;7549095;19;19926;-73
2023/07/17 05:43:33;;;;;;;;;;;19.30;99.90;;;;;;7546038;19;20341;-75
2023/07/17 05:46:12;;;;;;;;;;;19.30;99.90;;;;;;7526561;19;21992;-74
2023/07/17 05:48:46;;;;;;;;;;;19.30;99.90;;;;;;7560323;19;19915;-74
2023/07/17 05:51:18;;;;;;;;;;;19.40;99.90;;;;;;7538262;19;19923;-74
2023/07/17 05:53:51;;;;;;;;;;;19.40;99.90;;;;;;7566790;19;19927;-75
2023/07/17 05:56:23;;;;;;;;;;;19.50;99.90;;;;;;7563606;19;20312;-75
2023/07/17 05:58:56;;;;;;;;;;;19.40;99.90;;;;;;7552467;19;19915;-74
2023/07/17 06:01:28;;;;;;;;;;;19.40;99.90;;;;;;7555803;19;19949;-75
2023/07/17 06:04:00;;;;;;;;;;;19.40;99.90;;;;;;7555423;19;19965;-75
2023/07/17 06:06:33;;;;;;;;;;;19.40;99.90;;;;;;7527757;19;20942;-75
2023/07/17 06:09:06;;;;;;;;;;;19.40;99.90;;;;;;7524076;19;20261;-75
2023/07/17 06:11:38;;;;;;;;;;;19.40;99.90;;;;;;7548944;19;19926;-77
2023/07/17 06:14:10;;;;;;;;;;;19.40;99.90;;;;;;7541649;19;19969;-75
2023/07/17 06:16:42;;;;;;;;;;;19.50;99.90;;;;;;7553129;19;19933;-74
2023/07/17 06:19:14;;;;;;;;;;;19.50;99.90;;;;;;7570003;19;19919;-75
2023/07/17 06:21:47;;;;;;;;;;;19.60;99.90;;;;;;7558809;19;20180;-75
2023/07/17 06:24:19;;;;;;;;;;;19.70;99.90;;;;;;7551657;19;19929;-75
2023/07/17 06:26:51;;;;;;;;;;;19.70;99.90;;;;;;7521024;19;19919;-74
2023/07/17 06:29:27;;;;;;;;;;;19.80;99.90;;;;;;7516283;19;19911;-74
2023/07/17 06:31:59;;;;;;;;;;;19.80;99.90;;;;;;7565339;19;20244;-75
2023/07/17 06:34:32;;;;;;;;;;;19.80;99.90;;;;;;7533395;19;19922;-74
2023/07/17 06:37:05;;;;;;;;;;;19.80;99.90;;;;;;7506415;19;19918;-73
2023/07/17 06:39:37;;;;;;;;;;;19.80;99.90;;;;;;7490289;19;20796;-74
2023/07/17 06:42:10;;;;;;;;;;;19.80;99.90;;;;;;7507270;19;19919;-73
2023/07/17 06:44:42;;;;;;;;;;;19.80;99.90;;;;;;7533276;19;19926;-73
2023/07/17 06:47:14;;;;;;;;;;;19.60;99.90;;;;;;7548776;19;19918;-75
2023/07/17 06:50:07;;;;;;;;;;;19.60;99.90;;;;;;7556829;19;19926;-73
2023/07/17 06:52:41;;;;;;;;;;;19.50;99.90;;;;;;7566419;19;19926;-73
2023/07/17 06:55:13;;;;;;;;;;;19.40;99.90;;;;;;7513453;19;21127;-72
2023/07/17 06:57:46;;;;;;;;;;;19.30;99.90;;;;;;7531838;19;20536;-72
2023/07/17 07:00:18;;;;;;;;;;;19.20;99.90;;;;;;7550545;19;19927;-74
2023/07/17 07:02:50;;;;;;;;;;;19.20;99.90;;;;;;7488492;19;20398;-74
2023/07/17 07:05:22;;;;;;;;;;;19.30;99.90;;;;;;7524256;19;19915;-74
2023/07/17 07:07:55;;;;;;;;;;;19.40;99.90;;;;;;7540415;19;19918;-74
2023/07/17 07:10:27;;;;;;;;;;;19.30;99.90;;;;;;7553351;19;19930;-73
2023/07/17 07:12:59;;;;;;;;;;;19.20;99.90;;;;;;7564162;19;20675;-73
2023/07/17 07:15:31;;;;;;;;;;;19.30;99.90;;;;;;7584930;19;21098;-73
2023/07/17 07:18:03;;;;;;;;;;;19.40;99.90;;;;;;7591337;19;20429;-73
2023/07/17 07:20:36;;;;;;;;;;;19.50;99.90;;;;;;7567339;19;20373;-73
2023/07/17 07:23:09;;;;;;;;;;;19.60;99.90;;;;;;7592677;19;20490;-74
2023/07/17 07:25:41;;;;;;;;;;;19.70;99.90;;;;;;7582458;19;20333;-73
2023/07/17 07:28:14;;;;;;;;;;;19.60;99.90;;;;;;7580736;19;19923;-73
2023/07/17 07:30:46;;;;;;;;;;;19.50;99.90;;;;;;7563669;19;19942;-75
2023/07/17 07:33:18;;;;;;;;;;;19.60;99.90;;;;;;7598455;19;20766;-74
2023/07/17 07:35:51;;;;;;;;;;;19.40;99.90;;;;;;7589111;19;19990;-73
2023/07/17 07:38:23;;;;;;;;;;;19.40;99.90;;;;;;7595482;19;19915;-73
2023/07/17 07:40:55;;;;;;;;;;;19.40;99.90;;;;;;7591046;19;19919;-74
2023/07/17 07:43:28;;;;;;;;;;;19.60;99.90;;;;;;7590767;19;21239;-73
2023/07/17 07:46:00;;;;;;;;;;;19.70;99.90;;;;;;7570489;19;19934;-74
2023/07/17 07:48:32;;;;;;;;;;;19.80;99.90;;;;;;7575340;19;19964;-73
2023/07/17 07:51:05;;;;;;;;;;;19.90;99.90;;;;;;7584291;19;19918;-75
2023/07/17 07:53:37;;;;;;;;;;;19.80;99.90;;;;;;7582315;19;20017;-74
2023/07/17 07:56:14;;;;;;;;;;;19.80;99.90;;;;;;7579579;19;19923;-74
2023/07/17 07:58:47;;;;;;;;;;;19.90;99.90;;;;;;7577761;19;19926;-73
2023/07/17 08:01:19;;;;;;;;;;;19.90;99.90;;;;;;7574316;19;19922;-74
2023/07/17 08:03:51;;;;;;;;;;;20.00;99.90;;;;;;7584218;19;19919;-74
2023/07/17 08:06:24;;;;;;;;;;;20.00;99.90;;;;;;7575560;19;19923;-74
2023/07/17 08:08:56;;;;;;;;;;;20.10;99.90;;;;;;7593606;19;20531;-74
2023/07/17 08:11:28;;;;;;;;;;;20.10;99.90;;;;;;7582298;19;20747;-74
2023/07/17 08:14:00;;;;;;;;;;;20.20;99.90;;;;;;7590693;19;19922;-74
2023/07/17 08:16:32;;;;;;;;;;;20.30;99.90;;;;;;7599221;19;19923;-74
2023/07/17 08:19:05;;;;;;;;;;;20.40;99.90;;;;;;7602928;19;19937;-74
2023/07/17 08:21:37;;;;;;;;;;;;;;;;;;7594331;19;20187;-74
2023/07/17 08:24:10;;;;;;;;;;;;;;;;;;7586113;19;19960;-74
2023/07/17 08:26:43;;;;;;;;;;;;;;;;;;7590352;19;19926;-73
2023/07/17 08:29:16;;;;;;;;;;;;;;;;;;7595369;19;19923;-74
2023/07/17 08:31:49;;;;;;;;;;;;;;;;;;7589555;19;19968;-75
2023/07/17 08:34:23;;;;;;;;;;;;;;;;;;7602494;19;19926;-74
2023/07/17 08:36:55;;;;;;;;;;;;;;;;;;7596821;19;20384;-75
2023/07/17 08:39:28;;;;;;;;;;;;;;;;;;7591965;19;19918;-74
2023/07/17 08:42:01;;;;;;;;;;;;;;;;;;7591393;19;20782;-75
2023/07/17 08:44:33;;;;;;;;;;;;;;;;;;7596058;19;19967;-75
2023/07/17 08:47:07;;;;;;;;;;;20.50;99.90;;;;;;7593049;19;21044;-75
2023/07/17 08:49:40;;;;;;;;;;;21.90;99.90;;;;;;7577983;19;19926;-75
2023/07/17 08:52:12;;;;;;;;;;;21.90;99.90;;;;;;7601074;19;20002;-75
2023/07/17 08:54:45;;;;;;;;;;;;;;;;;;7593237;19;19931;-74
2023/07/17 08:57:17;;;;;;;;;;;;;;;;;;7604342;19;19979;-75
2023/07/17 08:59:50;;;;;;;;;;;21.90;99.90;;;;;;7588735;19;19927;-75
2023/07/17 09:02:22;;;;;;;;;;;;;;;;;;7589403;19;20888;-75
2023/07/17 09:04:54;;;;;;;;;;;22.40;99.90;;;;;;7605328;19;19915;-75
2023/07/17 09:07:26;;;;;;;;;;;22.70;99.90;;;;;;7594897;19;19919;-75
2023/07/17 09:10:15;;;;;;;;;;;22.70;99.90;;;;;;7588835;19;21285;-75
2023/07/17 09:12:52;;;;;;;;;;;22.70;99.90;;;;;;7592030;19;19930;-75
2023/07/17 09:15:27;;;;;;;;;;;22.60;99.90;;;;;;7602450;19;19914;-76
2023/07/17 09:18:00;;;;;;;;;;;22.50;99.90;;;;;;7596489;19;20915;-75
2023/07/17 09:20:33;;;;;;;;;;;22.30;99.90;;;;;;7588864;19;19929;-76
2023/07/17 09:23:05;;;;;;;;;;;22.30;99.90;;;;;;7590809;19;19938;-75
2023/07/17 09:25:43;;;;;;;;;;;22.40;99.90;;;;;;7588907;19;19938;-75
2023/07/17 09:28:15;;;;;;;;;;;22.60;99.90;;;;;;7586279;19;19922;-75
2023/07/17 09:30:59;;;;;;;;;;;22.70;99.90;;;;;;7578012;19;21206;-76
2023/07/17 09:33:35;;;;;;;;;;;22.80;99.90;;;;;;7597560;19;19930;-75
2023/07/17 09:36:11;;;;;;;;;;;22.90;99.90;;;;;;7598994;19;19923;-76
2023/07/17 09:38:43;;;;;;;;;;;22.90;99.90;;;;;;7596785;19;19957;-75
2023/07/17 09:41:17;;;;;;;;;;;22.90;99.90;;;;;;7588144;19;19937;-76
2023/07/17 09:44:00;;;;;;;;;;;23.00;99.90;;;;;;7589459;19;20736;-75
2023/07/17 09:46:34;;;;;;;;;;;23.00;99.90;;;;;;6583630;19;10000216;-76
2023/07/17 09:49:07;;;;;;;;;;;22.90;99.90;;;;;;7597959;19;20312;-75
2023/07/17 09:51:39;;;;;;;;;;;22.80;99.90;;;;;;7597168;19;19933;-76
2023/07/17 09:54:11;;;;;;;;;;;22.80;99.90;;;;;;7583064;19;20765;-75
2023/07/17 09:56:44;;;;;;;;;;;23.00;99.90;;;;;;7581575;19;19930;-75
2023/07/17 09:59:19;;;;;;;;;;;23.30;99.90;;;;;;7593402;19;19944;-75
2023/07/17 10:01:52;;;;;;;;;;;23.40;99.90;;;;;;7589815;19;20554;-74
2023/07/17 10:04:31;;;;;;;;;;;23.70;99.90;;;;;;7600779;19;20321;-76
2023/07/17 10:07:03;;;;;;;;;;;23.80;99.90;;;;;;7593398;19;19930;-75
2023/07/17 10:09:36;;;;;;;;;;;23.90;99.90;;;;;;7586119;19;19925;-75
2023/07/17 10:12:12;;;;;;;;;;;23.90;99.90;;;;;;7577688;19;20006;-75
2023/07/17 10:14:45;;;;;;;;;;;24.10;99.90;;;;;;7599157;19;19931;-75
2023/07/17 10:17:32;;;;;;;;;;;24.30;99.90;;;;;;7575633;19;19922;-75
2023/07/17 10:20:11;;;;;;;;;;;24.30;99.90;;;;;;7592720;19;19941;-75
2023/07/17 10:22:44;;;;;;;;;;;24.30;99.90;;;;;;7587265;19;19918;-75
2023/07/17 10:25:17;;;;;;;;;;;24.40;99.90;;;;;;7590236;19;19926;-75
2023/07/17 10:27:57;;;;;;;;;;;24.70;99.90;;;;;;7586010;19;20288;-75
2023/07/17 10:30:37;;;;;;;;;;;25.30;99.90;;;;;;7517238;19;19925;-75
2023/07/17 10:33:14;;;;;;;;;;;25.90;99.90;;;;;;7525283;19;19926;-75
2023/07/17 10:35:47;;;;;;;;;;;26.00;99.90;;;;;;7540721;19;19970;-75
2023/07/17 10:38:24;;;;;;;;;;;26.20;99.90;;;;;;7560599;19;19915;-75
2023/07/17 10:41:20;;;;;;;;;;;26.50;99.10;;;;;;7568975;19;20186;-74
2023/07/17 10:43:58;;;;;;;;;;;26.50;98.40;;;;;;7555817;19;20029;-75
2023/07/17 10:46:50;;;;;;;;;;;;;;;;;;7530369;19;19922;-74
2023/07/17 10:49:22;;;;;;;;;;;26.50;99.50;;;;;;7544658;19;19919;-75
2023/07/17 10:51:55;;;;;;;;;;;27.00;97.50;;;;;;7577113;19;19946;-75
2023/07/17 10:54:27;;;;;;;;;;;26.70;97.30;;;;;;7563007;19;19923;-74
2023/07/17 10:57:00;;;;;;;;;;;26.90;98.60;;;;;;7568185;19;19926;-75
2023/07/17 10:59:32;;;;;;;;;;;26.80;98.20;;;;;;7553155;19;20018;-74
2023/07/17 11:02:04;;;;;;;;;;;27.10;98.10;;;;;;7542680;19;19935;-75
2023/07/17 11:04:37;;;;;;;;;;;26.90;98.40;;;;;;7547264;19;19919;-75
2023/07/17 11:07:09;;;;;;;;;;;26.70;97.90;;;;;;7563484;19;20046;-75
2023/07/17 11:09:44;;;;;;;;;;;26.70;97.30;;;;;;7570950;19;19919;-75
2023/07/17 11:12:17;;;;;;;;;;;26.50;96.40;;;;;;7569361;19;19918;-75
2023/07/17 11:14:52;;;;;;;;;;;26.50;95.70;;;;;;7593956;19;19929;-75
2023/07/17 11:17:24;;;;;;;;;;;26.60;96.50;;;;;;7577669;19;19922;-74
2023/07/17 11:20:03;;;;;;;;;;;26.90;96.70;;;;;;7571014;19;19925;-75
2023/07/17 11:22:36;;;;;;;;;;;27.10;95.60;;;;;;7566731;19;19922;-75
2023/07/17 11:25:10;;;;;;;;;;;27.10;95.80;;;;;;7537903;19;20520;-75
2023/07/17 11:27:43;;;;;;;;;;;27.40;94.90;;;;;;7524842;19;19919;-76
2023/07/17 11:30:17;;;;;;;;;;;27.80;94.80;;;;;;7571145;19;20775;-75
2023/07/17 11:32:59;;;;;;;;;;;28.10;94.10;;;;;;7587637;19;19915;-75
2023/07/17 11:35:45;;;;;;;;;;;27.90;93.70;;;;;;7538642;19;20359;-75
2023/07/17 11:38:19;;;;;;;;;;;27.80;94.20;;;;;;7555169;19;20154;-75
2023/07/17 11:40:55;;;;;;;;;;;28.20;95.10;;;;;;7585043;19;19931;-75
2023/07/17 11:43:30;;;;;;;;;;;28.30;94.20;;;;;;7582298;19;20289;-76
2023/07/17 11:46:06;;;;;;;;;;;28.00;93.10;;;;;;7574818;19;19922;-75
2023/07/17 11:48:43;;;;;;;;;;;27.50;93.20;;;;;;7550034;19;20978;-74
2023/07/17 11:51:15;;;;;;;;;;;27.10;95.90;;;;;;7539103;19;19922;-75
2023/07/17 11:53:51;;;;;;;;;;;27.00;94.50;;;;;;7563839;19;20001;-74
2023/07/17 11:56:34;;;;;;;;;;;26.90;95.30;;;;;;7531296;19;19918;-74
2023/07/17 11:59:36;;;;;;;;;;;26.90;94.50;;;;;;7539745;19;19914;-74
2023/07/17 12:02:08;;;;;;;;;;;27.10;93.30;;;;;;7498637;19;20976;-73
2023/07/17 12:04:41;;;;;;;;;;;27.70;93.40;;;;;;7512332;19;20504;-74
2023/07/17 12:07:18;;;;;;;;;;;27.80;92.50;;;;;;7558834;19;19933;-74
2023/07/17 12:09:51;;;;;;;;;;;27.70;92.00;;;;;;7549699;19;19925;-74
2023/07/17 12:12:23;;;;;;;;;;;27.50;93.60;;;;;;7551468;19;19976;-75
2023/07/17 12:14:56;;;;;;;;;;;27.30;91.80;;;;;;7579767;19;19915;-75
2023/07/17 12:17:28;;;;;;;;;;;27.50;92.90;;;;;;7567596;19;20249;-75
2023/07/17 12:20:00;;;;;;;;;;;28.10;92.20;;;;;;7563357;19;21096;-74
2023/07/17 12:22:33;;;;;;;;;;;28.60;91.40;;;;;;7565604;19;19915;-75
2023/07/17 12:25:06;;;;;;;;;;;28.60;90.80;;;;;;7564283;19;19923;-76
2023/07/17 12:27:41;;;;;;;;;;;28.50;88.10;;;;;;7571963;19;20389;-74
2023/07/17 12:30:22;;;;;;;;;;;28.70;90.20;;;;;;7562225;19;19914;-75
2023/07/17 12:32:54;;;;;;;;;;;29.00;89.10;;;;;;7570742;19;19929;-75
2023/07/17 12:35:26;;;;;;;;;;;28.70;87.30;;;;;;7560134;19;19923;-75
2023/07/17 12:38:01;;;;;;;;;;;29.20;86.50;;;;;;7554803;19;20008;-75
2023/07/17 12:40:33;;;;;;;;;;;29.60;87.40;;;;;;7541316;19;20311;-75
2023/07/17 12:43:07;;;;;;;;;;;29.90;87.60;;;;;;7550095;19;20349;-75
2023/07/17 12:45:39;;;;;;;;;;;30.10;83.30;;;;;;7567908;19;19926;-75
2023/07/17 12:48:12;;;;;;;;;;;30.50;85.70;;;;;;7525536;19;19921;-75
2023/07/17 12:50:49;;;;;;;;;;;30.90;83.00;;;;;;7579365;19;19918;-76
2023/07/17 12:53:23;;;;;;;;;;;31.00;82.20;;;;;;7581094;19;19915;-75
2023/07/17 12:55:55;;;;;;;;;;;31.00;80.60;;;;;;7595387;19;19922;-75
2023/07/17 12:58:48;;;;;;;;;;;31.20;80.40;;;;;;7532199;19;19915;-75
2023/07/17 13:01:23;;;;;;;;;;;31.20;76.90;;;;;;7527162;19;20353;-75
2023/07/17 13:03:55;;;;;;;;;;;30.90;81.40;;;;;;7533390;19;19998;-75
2023/07/17 13:06:28;;;;;;;;;;;30.70;78.60;;;;;;7543715;19;20539;-76
2023/07/17 13:09:00;;;;;;;;;;;29.70;81.10;;;;;;7540543;19;19915;-76
2023/07/17 13:11:36;;;;;;;;;;;29.50;81.40;;;;;;7541096;19;20155;-77
2023/07/17 13:14:10;;;;;;;;;;;29.50;80.90;;;;;;7575615;19;20848;-74
2023/07/17 13:16:44;;;;;;;;;;;29.60;80.20;;;;;;7577765;19;19974;-76
2023/07/17 13:19:19;;;;;;;;;;;29.40;79.70;;;;;;7585636;19;20327;-76
2023/07/17 13:21:51;;;;;;;;;;;29.40;81.60;;;;;;7591965;19;19926;-76
2023/07/17 13:24:24;;;;;;;;;;;29.70;77.90;;;;;;7577079;19;19926;-76
2023/07/17 13:26:58;;;;;;;;;;;29.70;79.50;;;;;;7585829;19;19919;-75
2023/07/17 13:29:34;;;;;;;;;;;29.50;83.10;;;;;;7591636;19;19925;-76
2023/07/17 13:32:08;;;;;;;;;;;29.20;82.90;;;;;;7584069;19;19929;-76
2023/07/17 13:34:41;;;;;;;;;;;29.10;81.50;;;;;;7592421;19;19929;-74
2023/07/17 13:37:14;;;;;;;;;;;29.50;80.60;;;;;;7573495;19;20456;-76
2023/07/17 13:39:46;;;;;;;;;;;29.80;78.50;;;;;;7552407;19;20396;-75
2023/07/17 13:42:19;;;;;;;;;;;30.20;77.70;;;;;;7565274;19;20993;-75
2023/07/17 13:44:51;;;;;;;;;;;30.20;78.40;;;;;;7581469;19;20965;-75
2023/07/17 13:47:23;;;;;;;;;;;30.60;76.80;;;;;;7579870;19;19919;-76
2023/07/17 13:49:57;;;;;;;;;;;31.10;78.20;;;;;;7594246;19;19943;-75
2023/07/17 13:52:29;;;;;;;;;;;31.30;77.60;;;;;;7565773;19;19963;-76
2023/07/17 13:55:03;;;;;;;;;;;31.40;76.70;;;;;;7575496;19;20254;-76
2023/07/17 13:57:35;;;;;;;;;;;31.60;75.30;;;;;;7582220;19;20451;-76
2023/07/17 14:00:08;;;;;;;;;;;31.70;72.60;;;;;;7542268;19;21387;-76
2023/07/17 14:02:40;;;;;;;;;;;32.10;75.40;;;;;;7566228;19;19923;-76
2023/07/17 14:05:12;;;;;;;;;;;31.50;71.60;;;;;;7559616;19;19919;-76
2023/07/17 14:07:44;;;;;;;;;;;31.40;73.70;;;;;;7561547;19;19915;-77
2023/07/17 14:10:17;;;;;;;;;;;31.60;73.80;;;;;;7555231;19;19971;-72
2023/07/17 14:12:49;;;;;;;;;;;31.40;74.20;;;;;;7568741;19;19926;-75
2023/07/17 14:15:21;;;;;;;;;;;31.30;74.30;;;;;;7550515;19;19923;-76
2023/07/17 14:17:53;;;;;;;;;;;30.90;72.70;;;;;;7549901;19;20277;-74
2023/07/17 14:20:26;;;;;;;;;;;30.40;73.40;;;;;;7576213;19;20571;-75
2023/07/17 14:22:58;;;;;;;;;;;29.90;73.10;;;;;;7595996;19;20495;-76
2023/07/17 14:25:31;;;;;;;;;;;29.80;75.10;;;;;;7598671;19;19923;-76
2023/07/17 14:28:03;;;;;;;;;;;29.70;74.70;;;;;;7595911;19;19922;-76
2023/07/17 14:30:36;;;;;;;;;;;30.10;74.10;;;;;;7589536;19;21380;-76
2023/07/17 14:33:08;;;;;;;;;;;30.60;73.80;;;;;;7604568;19;19923;-76
2023/07/17 14:35:41;;;;;;;;;;;31.10;73.10;;;;;;7596961;19;19922;-76
2023/07/17 14:38:13;;;;;;;;;;;31.00;74.70;;;;;;7590948;19;19915;-77
2023/07/17 14:40:46;;;;;;;;;;;31.50;72.40;;;;;;7595915;19;19935;-76
2023/07/17 14:43:18;;;;;;;;;;;31.50;71.20;;;;;;7590896;19;19922;-76
2023/07/17 14:45:50;;;;;;;;;;;31.90;69.80;;;;;;7595167;19;19918;-76
2023/07/17 14:48:22;;;;;;;;;;;31.70;68.90;;;;;;7595246;19;19922;-75
2023/07/17 14:50:55;;;;;;;;;;;31.40;68.90;;;;;;7591329;19;20466;-76
2023/07/17 14:53:27;;;;;;;;;;;31.70;72.10;;;;;;7587360;19;19952;-76
2023/07/17 14:56:00;;;;;;;;;;;31.70;71.20;;;;;;7597664;19;20283;-76
2023/07/17 14:58:32;;;;;;;;;;;31.40;70.20;;;;;;7596434;19;20228;-76